createdAt,value
2023-01-18T00:02:25.409Z,99069.81
2023-01-18T00:05:10.744Z,99066.47
2023-01-18T00:07:56.239Z,99080.88
2023-01-18T00:10:41.279Z,99082.88
2023-01-18T00:13:26.439Z,99073.63
2023-01-18T00:16:17.466Z,99070.84
2023-01-18T00:19:02.871Z,99073.47
2023-01-18T00:21:48.092Z,99077.66
2023-01-18T00:24:33.255Z,99085.44
2023-01-18T00:27:18.302Z,99076.69
2023-01-18T00:30:08.241Z,99085.34
2023-01-18T00:32:56.174Z,99068.53
2023-01-18T00:35:41.764Z,99069.50
2023-01-18T00:38:27.540Z,99054.50
2023-01-18T00:41:12.407Z,99079.44
2023-01-18T00:43:57.972Z,99084.81
2023-01-18T00:46:42.917Z,99080.00
2023-01-18T00:49:28.348Z,99077.44
2023-01-18T00:52:13.369Z,99081.56
2023-01-18T00:54:58.399Z,99088.00
2023-01-18T00:57:44.472Z,99075.53
2023-01-18T01:00:29.813Z,99078.00
2023-01-18T01:03:15.289Z,99085.84
2023-01-18T01:06:19.104Z,99079.88
2023-01-18T01:09:04.503Z,99082.75
2023-01-18T01:12:09.479Z,99082.63
2023-01-18T01:15:13.923Z,99069.16
2023-01-18T01:18:17.697Z,99075.72
2023-01-18T01:21:24.585Z,99078.41
2023-01-18T01:24:28.342Z,99068.28
2023-01-18T01:27:14.134Z,99071.72
2023-01-18T01:29:59.609Z,99074.28
2023-01-18T01:32:45.108Z,99070.75
2023-01-18T01:35:30.770Z,99064.03
2023-01-18T01:38:15.859Z,99077.38
2023-01-18T01:41:04.858Z,99075.97
2023-01-18T01:43:52.188Z,99071.91
2023-01-18T01:46:48.662Z,99076.44
2023-01-18T01:49:45.652Z,99078.19
2023-01-18T01:52:35.837Z,99079.91
2023-01-18T01:55:24.394Z,99077.59
2023-01-18T01:58:25.745Z,99095.41
2023-01-18T02:01:10.833Z,99083.88
2023-01-18T02:04:01.799Z,99066.22
2023-01-18T02:06:46.871Z,99104.78
2023-01-18T02:09:31.846Z,99110.03
2023-01-18T02:12:17.080Z,99097.50
2023-01-18T02:15:03.203Z,99123.72
2023-01-18T02:18:02.855Z,99107.16
2023-01-18T02:21:13.027Z,99137.69
2023-01-18T02:24:20.015Z,99119.28
2023-01-18T02:27:11.597Z,99130.88
2023-01-18T02:30:08.983Z,99146.91
2023-01-18T02:33:18.077Z,99134.88
2023-01-18T02:36:05.734Z,99129.13
2023-01-18T02:38:55.939Z,99135.28
2023-01-18T02:42:07.192Z,99118.53
2023-01-18T02:45:11.057Z,99133.44
2023-01-18T02:47:56.507Z,99142.25
2023-01-18T02:50:42.065Z,99140.69
2023-01-18T02:53:27.500Z,99149.09
2023-01-18T02:56:15.360Z,99148.38
2023-01-18T02:59:26.562Z,99151.06
2023-01-18T03:02:18.914Z,99156.19
2023-01-18T03:05:05.156Z,99152.72
2023-01-18T03:07:53.305Z,99147.56
2023-01-18T03:10:51.722Z,99153.53
2023-01-18T03:13:41.575Z,99140.81
2023-01-18T03:16:30.391Z,99146.88
2023-01-18T03:19:40.442Z,99139.75
2023-01-18T03:22:48.213Z,99133.78
2023-01-18T03:25:42.846Z,99112.16
2023-01-18T03:28:52.430Z,99134.03
2023-01-18T03:32:07.755Z,99139.69
2023-01-18T03:34:59.561Z,99122.75
2023-01-18T03:37:47.919Z,99147.94
2023-01-18T03:40:33.140Z,99122.81
2023-01-18T03:43:22.581Z,99148.50
2023-01-18T03:46:08.648Z,99145.16
2023-01-18T03:48:53.887Z,99140.28
2023-01-18T03:51:58.371Z,99136.16
2023-01-18T03:54:49.530Z,99140.44
2023-01-18T03:57:46.440Z,99141.47
2023-01-18T04:00:31.828Z,99141.63
2023-01-18T04:03:17.043Z,99150.84
2023-01-18T04:06:04.921Z,99149.19
2023-01-18T04:08:50.503Z,99155.09
2023-01-18T04:11:35.841Z,99160.88
2023-01-18T04:14:20.972Z,99153.38
2023-01-18T04:17:06.224Z,99152.81
2023-01-18T04:19:51.234Z,99154.69
2023-01-18T04:22:36.429Z,99151.19
2023-01-18T04:25:22.100Z,99160.53
2023-01-18T04:28:07.014Z,99153.72
2023-01-18T04:30:56.618Z,99151.97
2023-01-18T04:33:41.751Z,99150.25
2023-01-18T04:36:28.373Z,99155.53
2023-01-18T04:39:14.170Z,99144.34
2023-01-18T04:41:59.185Z,99149.47
2023-01-18T04:44:44.362Z,99147.63
2023-01-18T04:47:29.340Z,99155.50
2023-01-18T04:50:14.419Z,99145.19
2023-01-18T04:53:00.332Z,99144.34
2023-01-18T04:55:46.669Z,99135.72
2023-01-18T04:58:32.127Z,99152.06
2023-01-18T05:01:17.619Z,99148.63
2023-01-18T05:04:03.525Z,99141.50
2023-01-18T05:06:49.250Z,99150.81
2023-01-18T05:09:34.440Z,99136.00
2023-01-18T05:12:19.741Z,99148.53
2023-01-18T05:15:05.932Z,99156.91
2023-01-18T05:17:51.116Z,99156.88
2023-01-18T05:20:36.056Z,99146.63
2023-01-18T05:23:21.676Z,99153.91
2023-01-18T05:26:14.352Z,99161.88
2023-01-18T05:28:59.257Z,99154.25
2023-01-18T05:31:44.407Z,99161.16
2023-01-18T05:34:29.633Z,99138.28
2023-01-18T05:37:15.181Z,99144.06
2023-01-18T05:40:00.031Z,99159.56
2023-01-18T05:42:45.369Z,99162.84
2023-01-18T05:45:30.212Z,99174.91
2023-01-18T05:48:15.416Z,99158.91
2023-01-18T05:51:00.792Z,99170.22
2023-01-18T05:53:45.943Z,99175.34
2023-01-18T05:56:31.388Z,99181.41
2023-01-18T05:59:16.636Z,99171.88
2023-01-18T06:02:01.795Z,99165.25
2023-01-18T06:04:47.591Z,99155.91
2023-01-18T06:07:32.695Z,99180.16
2023-01-18T06:10:18.415Z,99154.75
2023-01-18T06:13:03.517Z,99145.72
2023-01-18T06:15:49.778Z,99178.56
2023-01-18T06:18:35.041Z,99185.72
2023-01-18T06:21:20.210Z,99176.53
2023-01-18T06:24:05.833Z,99187.84
2023-01-18T06:26:50.698Z,99192.88
2023-01-18T06:29:35.828Z,99178.03
2023-01-18T06:32:21.012Z,99205.69
2023-01-18T06:35:06.477Z,99208.19
2023-01-18T06:37:52.392Z,99214.03
2023-01-18T06:40:37.540Z,99207.97
2023-01-18T06:43:23.068Z,99194.78
2023-01-18T06:46:09.339Z,99221.59
2023-01-18T06:48:54.310Z,99221.69
2023-01-18T06:51:39.534Z,99223.97
2023-01-18T06:54:24.727Z,99228.22
2023-01-18T06:57:10.175Z,99222.28
2023-01-18T06:59:55.402Z,99212.09
2023-01-18T07:02:40.750Z,99227.41
2023-01-18T07:05:25.957Z,99223.75
2023-01-18T07:08:11.331Z,99231.38
2023-01-18T07:10:57.591Z,99219.03
2023-01-18T07:13:43.671Z,99219.16
2023-01-18T07:16:30.236Z,99251.09
2023-01-18T07:19:16.321Z,99236.03
2023-01-18T07:22:01.795Z,99257.81
2023-01-18T07:24:46.906Z,99255.31
2023-01-18T07:27:32.271Z,99261.22
2023-01-18T07:30:17.911Z,99264.88
2023-01-18T07:33:03.129Z,99267.16
2023-01-18T07:35:48.452Z,99258.66
2023-01-18T07:38:34.016Z,99253.53
2023-01-18T07:41:19.179Z,99266.25
2023-01-18T07:44:05.639Z,99268.19
2023-01-18T07:46:50.892Z,99239.16
2023-01-18T07:49:35.974Z,99289.50
2023-01-18T07:52:21.287Z,99291.16
2023-01-18T07:55:06.936Z,99296.19
2023-01-18T07:57:52.001Z,99277.81
2023-01-18T08:00:36.958Z,99307.31
2023-01-18T08:03:22.312Z,99298.81
2023-01-18T08:06:08.114Z,99315.13
2023-01-18T08:08:55.558Z,99315.84
2023-01-18T08:11:40.437Z,99314.91
2023-01-18T08:14:25.693Z,99288.84
2023-01-18T08:17:11.220Z,99314.78
2023-01-18T08:19:56.290Z,99293.06
2023-01-18T08:22:41.354Z,99314.13
2023-01-18T08:25:29.749Z,99326.16
2023-01-18T08:28:15.359Z,99322.03
2023-01-18T08:31:14.343Z,99335.28
2023-01-18T08:33:59.551Z,99337.72
2023-01-18T08:36:44.514Z,99334.41
2023-01-18T08:39:29.538Z,99335.28
2023-01-18T08:42:14.587Z,99340.53
2023-01-18T08:44:59.897Z,99315.25
2023-01-18T08:47:45.066Z,99347.13
2023-01-18T08:50:32.049Z,99328.50
2023-01-18T08:53:16.965Z,99347.78
2023-01-18T08:56:09.005Z,99349.50
2023-01-18T08:58:54.209Z,99352.53
2023-01-18T09:01:39.465Z,99356.91
2023-01-18T09:04:24.801Z,99351.22
2023-01-18T09:07:09.707Z,99363.66
2023-01-18T09:09:54.503Z,99368.63
2023-01-18T09:12:39.729Z,99373.75
2023-01-18T09:15:24.964Z,99380.50
2023-01-18T09:18:09.877Z,99358.72
2023-01-18T09:20:54.805Z,99385.38
2023-01-18T09:23:40.818Z,99388.59
2023-01-18T09:26:25.980Z,99388.50
2023-01-18T09:29:11.167Z,99382.41
2023-01-18T09:31:56.355Z,99385.09
2023-01-18T09:34:41.590Z,99348.00
2023-01-18T09:37:26.480Z,99382.03
2023-01-18T09:40:20.171Z,99387.72
2023-01-18T09:43:16.902Z,99383.91
2023-01-18T09:46:02.019Z,99360.75
2023-01-18T09:49:13.025Z,99389.03
2023-01-18T09:52:24.748Z,99388.78
2023-01-18T09:55:25.039Z,99406.50
2023-01-18T09:58:16.070Z,99401.72
2023-01-18T10:01:13.760Z,99408.94
2023-01-18T10:04:16.539Z,99402.47
2023-01-18T10:07:16.078Z,99398.75
2023-01-18T10:10:02.006Z,99405.13
2023-01-18T10:12:55.833Z,99405.59
2023-01-18T10:15:41.675Z,99394.16
2023-01-18T10:18:26.903Z,99413.16
2023-01-18T10:21:37.082Z,99424.50
2023-01-18T10:24:28.957Z,99389.94
2023-01-18T10:27:36.681Z,99441.34
2023-01-18T10:30:47.100Z,99437.72
2023-01-18T10:33:40.880Z,99443.06
2023-01-18T10:36:41.710Z,99439.28
2023-01-18T10:39:34.670Z,99439.56
2023-01-18T10:42:26.656Z,99455.97
2023-01-18T10:45:20.243Z,99426.72
2023-01-18T10:48:17.664Z,99449.06
2023-01-18T10:51:06.034Z,99463.34
2023-01-18T10:53:51.420Z,99464.53
2023-01-18T10:56:36.285Z,99465.88
2023-01-18T10:59:30.220Z,99467.16
2023-01-18T11:02:29.477Z,99473.56
2023-01-18T11:05:24.079Z,99476.44
2023-01-18T11:08:32.679Z,99472.16
2023-01-18T11:11:45.783Z,99475.09
2023-01-18T11:14:32.126Z,99472.13
2023-01-18T11:17:18.814Z,99471.75
2023-01-18T11:20:15.782Z,99480.84
2023-01-18T11:23:04.637Z,99483.34
2023-01-18T11:26:01.025Z,99493.38
2023-01-18T11:29:07.297Z,99481.19
2023-01-18T11:31:54.310Z,99488.94
2023-01-18T11:34:43.531Z,99481.84
2023-01-18T11:37:35.829Z,99458.72
2023-01-18T11:40:21.333Z,99474.81
2023-01-18T11:43:09.812Z,99488.84
2023-01-18T11:46:01.488Z,99479.91
2023-01-18T11:49:10.051Z,99484.00
2023-01-18T11:52:05.116Z,99472.00
2023-01-18T11:54:55.198Z,99487.69
2023-01-18T11:57:40.414Z,99491.53
2023-01-18T12:00:28.427Z,99485.69
2023-01-18T12:03:35.929Z,99488.69
2023-01-18T12:06:43.688Z,99482.22
2023-01-18T12:09:54.187Z,99494.56
2023-01-18T12:13:02.935Z,99493.41
2023-01-18T12:15:55.509Z,99473.72
2023-01-18T12:18:53.083Z,99476.75
2023-01-18T12:21:58.620Z,99497.91
2023-01-18T12:24:53.391Z,99481.47
2023-01-18T12:27:57.070Z,99494.34
2023-01-18T12:31:03.128Z,99492.13
2023-01-18T12:34:07.673Z,99492.53
2023-01-18T12:36:58.862Z,99494.94
2023-01-18T12:40:03.204Z,99483.09
2023-01-18T12:43:21.502Z,99506.22
2023-01-18T12:46:21.774Z,99476.34
2023-01-18T12:49:18.638Z,99495.03
2023-01-18T12:52:18.075Z,99499.75
2023-01-18T12:55:05.689Z,99498.47
2023-01-18T12:57:54.264Z,99505.66
2023-01-18T13:00:47.055Z,99510.31
2023-01-18T13:03:41.189Z,99508.06
2023-01-18T13:06:27.365Z,99509.34
2023-01-18T13:09:18.696Z,99506.03
2023-01-18T13:12:05.753Z,99519.78
2023-01-18T13:15:01.835Z,99530.25
2023-01-18T13:18:05.567Z,99520.50
2023-01-18T13:21:20.185Z,99515.78
2023-01-18T13:24:19.176Z,99534.47
2023-01-18T13:27:14.017Z,99517.53
2023-01-18T13:30:09.227Z,99534.53
2023-01-18T13:32:55.147Z,99510.44
2023-01-18T13:35:54.075Z,99526.56
2023-01-18T13:38:50.260Z,99531.72
2023-01-18T13:41:35.906Z,99536.09
2023-01-18T13:44:32.406Z,99534.09
2023-01-18T13:47:35.951Z,99540.03
2023-01-18T13:50:36.807Z,99545.31
2023-01-18T13:53:23.601Z,99550.44
2023-01-18T13:56:25.526Z,99533.44
2023-01-18T13:59:23.596Z,99564.38
2023-01-18T14:02:28.632Z,99567.84
2023-01-18T14:05:26.040Z,99572.47
2023-01-18T14:08:23.968Z,99569.19
2023-01-18T14:11:20.612Z,99566.75
2023-01-18T14:14:11.949Z,99576.94
2023-01-18T14:17:15.087Z,99582.19
2023-01-18T14:20:37.051Z,99588.69
2023-01-18T14:23:57.281Z,99584.16
2023-01-18T14:26:43.644Z,99585.81
2023-01-18T14:29:47.709Z,99597.50
2023-01-18T14:32:36.856Z,99605.00
2023-01-18T14:35:25.757Z,99611.88
2023-01-18T14:38:18.855Z,99620.31
2023-01-18T14:41:08.844Z,99616.22
2023-01-18T14:43:54.071Z,99614.19
2023-01-18T14:46:39.184Z,99616.13
2023-01-18T14:49:35.042Z,99618.81
2023-01-18T14:52:22.381Z,99626.13
2023-01-18T14:55:26.976Z,99623.44
2023-01-18T14:58:16.764Z,99626.03
2023-01-18T15:01:01.851Z,99630.25
2023-01-18T15:03:53.890Z,99636.66
2023-01-18T15:06:47.605Z,99627.03
2023-01-18T15:09:35.803Z,99632.69
2023-01-18T15:12:25.730Z,99643.72
2023-01-18T15:15:22.350Z,99652.88
2023-01-18T15:18:14.688Z,99647.31
2023-01-18T15:21:06.262Z,99656.09
2023-01-18T15:23:55.118Z,99655.03
2023-01-18T15:26:44.123Z,99671.78
2023-01-18T15:29:36.293Z,99660.19
2023-01-18T15:32:23.716Z,99657.28
2023-01-18T15:35:13.789Z,99680.34
2023-01-18T15:37:59.203Z,99673.84
2023-01-18T15:40:57.076Z,99675.78
2023-01-18T15:43:44.795Z,99660.84
2023-01-18T15:46:30.480Z,99680.44
2023-01-18T15:49:15.726Z,99679.03
2023-01-18T15:52:02.898Z,99676.41
2023-01-18T15:54:49.745Z,99695.09
2023-01-18T15:57:36.538Z,99700.44
2023-01-18T16:00:43.601Z,99697.94
2023-01-18T16:03:39.135Z,99678.16
2023-01-18T16:06:25.885Z,99708.22
2023-01-18T16:09:12.795Z,99713.28
2023-01-18T16:12:00.202Z,99715.31
2023-01-18T16:14:52.741Z,99720.56
2023-01-18T16:17:38.231Z,99714.56
2023-01-18T16:20:23.764Z,99713.72
2023-01-18T16:23:21.344Z,99719.06
2023-01-18T16:26:11.911Z,99727.16
2023-01-18T16:29:08.486Z,99711.13
2023-01-18T16:32:22.544Z,99729.81
2023-01-18T16:35:13.069Z,99745.25
2023-01-18T16:37:58.206Z,99741.31
2023-01-18T16:40:45.717Z,99749.47
2023-01-18T16:43:34.690Z,99755.72
2023-01-18T16:46:20.011Z,99761.56
2023-01-18T16:49:11.056Z,99769.47
2023-01-18T16:51:56.431Z,99775.03
2023-01-18T16:54:45.716Z,99781.44
2023-01-18T16:57:31.232Z,99784.41
2023-01-18T17:00:19.248Z,99755.31
2023-01-18T17:03:04.610Z,99795.13
2023-01-18T17:05:50.730Z,99791.00
2023-01-18T17:08:35.989Z,99798.25
2023-01-18T17:11:20.892Z,99790.19
2023-01-18T17:14:10.802Z,99813.16
2023-01-18T17:16:56.003Z,99810.63
2023-01-18T17:19:43.762Z,99820.28
2023-01-18T17:22:28.909Z,99826.03
2023-01-18T17:25:14.347Z,99823.25
2023-01-18T17:27:59.431Z,99808.66
2023-01-18T17:30:47.347Z,99809.88
2023-01-18T17:33:32.625Z,99832.91
2023-01-18T17:36:17.922Z,99820.59
2023-01-18T17:39:03.004Z,99852.91
2023-01-18T17:41:48.164Z,99856.25
2023-01-18T17:44:37.426Z,99862.31
2023-01-18T17:47:22.972Z,99861.78
2023-01-18T17:50:12.572Z,99863.75
2023-01-18T17:52:58.075Z,99873.31
2023-01-18T17:55:43.431Z,99868.38
2023-01-18T17:58:28.474Z,99845.38
2023-01-18T18:01:15.771Z,99874.25
2023-01-18T18:04:00.726Z,99860.56
2023-01-18T18:06:54.224Z,99887.03
2023-01-18T18:09:40.771Z,99890.59
2023-01-18T18:12:25.828Z,99893.09
2023-01-18T18:15:11.116Z,99895.31
2023-01-18T18:17:56.559Z,99908.94
2023-01-18T18:20:41.852Z,99914.91
2023-01-18T18:23:27.790Z,99913.78
2023-01-18T18:26:12.772Z,99929.81
2023-01-18T18:28:57.539Z,99931.56
2023-01-18T18:31:43.904Z,99939.31
2023-01-18T18:34:30.105Z,99936.66
2023-01-18T18:37:16.008Z,99918.31
2023-01-18T18:40:01.374Z,99952.13
2023-01-18T18:42:59.902Z,99956.41
2023-01-18T18:45:47.097Z,99961.78
2023-01-18T18:48:32.223Z,99976.44
2023-01-18T18:51:17.535Z,99974.34
2023-01-18T18:54:04.749Z,99971.72
2023-01-18T18:56:49.948Z,99999.00
2023-01-18T18:59:35.476Z,99996.56
2023-01-18T19:02:20.611Z,99988.03
2023-01-18T19:05:06.749Z,99969.38
2023-01-18T19:07:52.067Z,99994.03
2023-01-18T19:10:37.119Z,99999.13
2023-01-18T19:13:22.347Z,99976.09
2023-01-18T19:16:07.569Z,100003.25
2023-01-18T19:18:52.664Z,100006.66
2023-01-18T19:21:38.733Z,100013.53
2023-01-18T19:24:23.856Z,100013.53
2023-01-18T19:27:08.987Z,100016.81
2023-01-18T19:29:55.520Z,100014.31
2023-01-18T19:32:40.713Z,100022.88
2023-01-18T19:35:26.927Z,100025.31
2023-01-18T19:38:13.187Z,100025.47
2023-01-18T19:41:04.285Z,100026.25
2023-01-18T19:43:50.205Z,100031.41
2023-01-18T19:46:35.923Z,100030.31
2023-01-18T19:49:25.015Z,100006.00
2023-01-18T19:52:10.225Z,100040.47
2023-01-18T19:54:58.835Z,100041.06
2023-01-18T19:57:43.735Z,100030.53
2023-01-18T20:00:29.933Z,100044.69
2023-01-18T20:03:14.921Z,100041.34
2023-01-18T20:06:00.468Z,100036.63
2023-01-18T20:08:46.073Z,100046.81
2023-01-18T20:11:30.921Z,100059.53
2023-01-18T20:14:18.236Z,100065.59
2023-01-18T20:17:03.476Z,100042.94
2023-01-18T20:19:50.829Z,100075.22
2023-01-18T20:22:35.933Z,100074.44
2023-01-18T20:25:20.914Z,100063.59
2023-01-18T20:28:06.286Z,100089.03
2023-01-18T20:30:51.487Z,100091.63
2023-01-18T20:33:38.250Z,100070.59
2023-01-18T20:36:23.158Z,100087.13
2023-01-18T20:39:09.189Z,100081.47
2023-01-18T20:41:54.659Z,100093.59
2023-01-18T20:44:40.482Z,100104.97
2023-01-18T20:47:27.000Z,100106.72
2023-01-18T20:50:12.100Z,100106.72
2023-01-18T20:52:57.820Z,100078.22
2023-01-18T20:55:42.897Z,100108.69
2023-01-18T20:58:28.083Z,100106.91
2023-01-18T21:01:16.378Z,100108.53
2023-01-18T21:04:03.556Z,100108.69
2023-01-18T21:06:49.852Z,100126.81
2023-01-18T21:09:35.360Z,100124.22
2023-01-18T21:12:20.655Z,100129.41
2023-01-18T21:15:09.037Z,100134.47
2023-01-18T21:17:54.319Z,100132.06
2023-01-18T21:20:39.741Z,100133.84
2023-01-18T21:23:28.535Z,100140.72
2023-01-18T21:26:13.532Z,100139.09
2023-01-18T21:28:59.287Z,100141.97
2023-01-18T21:31:44.253Z,100140.28
2023-01-18T21:34:29.862Z,100135.41
2023-01-18T21:37:15.168Z,100135.53
2023-01-18T21:40:00.606Z,100135.41
2023-01-18T21:43:04.265Z,100127.25
2023-01-18T21:45:55.454Z,100143.53
2023-01-18T21:48:40.782Z,100149.59
2023-01-18T21:51:44.473Z,100161.72
2023-01-18T21:54:29.865Z,100162.84
2023-01-18T21:57:14.676Z,100157.25
2023-01-18T22:00:00.008Z,100167.31
2023-01-18T22:02:44.868Z,100165.09
2023-01-18T22:05:30.123Z,100181.84
2023-01-18T22:08:14.987Z,100184.38
2023-01-18T22:11:00.494Z,100186.97
2023-01-18T22:13:45.977Z,100175.19
2023-01-18T22:16:31.630Z,100194.84
2023-01-18T22:19:19.048Z,100186.28
2023-01-18T22:22:04.326Z,100190.53
2023-01-18T22:24:49.468Z,100183.59
2023-01-18T22:27:34.703Z,100192.31
2023-01-18T22:30:19.943Z,100189.94
2023-01-18T22:33:05.205Z,100189.19
2023-01-18T22:35:50.215Z,100200.53
2023-01-18T22:38:37.285Z,100175.31
2023-01-18T22:41:25.379Z,100207.53
2023-01-18T22:44:14.979Z,100201.06
2023-01-18T22:47:00.046Z,100204.56
2023-01-18T22:49:45.254Z,100208.03
2023-01-18T22:52:30.468Z,100218.34
2023-01-18T22:55:15.700Z,100193.00
2023-01-18T22:58:01.006Z,100219.28
2023-01-18T23:00:48.719Z,100210.16
2023-01-18T23:03:33.797Z,100224.06
2023-01-18T23:06:19.543Z,100221.66
2023-01-18T23:09:05.013Z,100231.72
2023-01-18T23:11:51.542Z,100235.91
2023-01-18T23:14:55.400Z,100229.81
2023-01-18T23:17:40.684Z,100228.19
2023-01-18T23:20:26.022Z,100234.38
2023-01-18T23:23:11.030Z,100242.84
2023-01-18T23:25:57.257Z,100251.47
2023-01-18T23:28:42.574Z,100249.81
2023-01-18T23:31:27.713Z,100252.28
2023-01-18T23:34:13.176Z,100253.28
2023-01-18T23:36:58.455Z,100251.50
2023-01-18T23:40:02.197Z,100255.75
2023-01-18T23:43:06.172Z,100253.50
2023-01-18T23:46:10.006Z,100253.72
2023-01-18T23:49:13.849Z,100263.06
2023-01-18T23:52:17.643Z,100253.81
2023-01-18T23:55:04.141Z,100270.84
2023-01-18T23:57:49.474Z,100267.47
